sensor_id;sensor_type;location;lat;lon;timestamp;temperature;humidity
14093;DHT22;7123;49.468;10.992;2022-12-07T00:01:47;3.40;99.90
14093;DHT22;7123;49.468;10.992;2022-12-07T00:04:17;3.40;99.90
14093;DHT22;7123;49.468;10.992;2022-12-07T00:06:46;3.40;99.90
14093;DHT22;7123;49.468;10.992;2022-12-07T00:09:17;3.40;99.90
14093;DHT22;7123;49.468;10.992;2022-12-07T00:11:45;3.40;99.90
14093;DHT22;7123;49.468;10.992;2022-12-07T00:14:16;3.40;99.90
14093;DHT22;7123;49.468;10.992;2022-12-07T00:16:44;3.40;99.90
14093;DHT22;7123;49.468;10.992;2022-12-07T00:19:12;3.40;99.90
14093;DHT22;7123;49.468;10.992;2022-12-07T00:21:40;3.70;99.90
14093;DHT22;7123;49.468;10.992;2022-12-07T00:24:06;3.40;99.90
14093;DHT22;7123;49.468;10.992;2022-12-07T00:26:35;3.40;99.90
14093;DHT22;7123;49.468;10.992;2022-12-07T00:29:05;3.30;99.90
14093;DHT22;7123;49.468;10.992;2022-12-07T00:31:34;3.40;99.90
14093;DHT22;7123;49.468;10.992;2022-12-07T00:34:06;3.40;99.90
14093;DHT22;7123;49.468;10.992;2022-12-07T00:36:33;3.40;99.90
14093;DHT22;7123;49.468;10.992;2022-12-07T00:39:00;3.40;99.90
14093;DHT22;7123;49.468;10.992;2022-12-07T00:41:28;3.40;99.90
14093;DHT22;7123;49.468;10.992;2022-12-07T00:43:55;3.40;99.90
14093;DHT22;7123;49.468;10.992;2022-12-07T00:46:23;3.40;99.90
14093;DHT22;7123;49.468;10.992;2022-12-07T00:48:51;3.40;99.90
14093;DHT22;7123;49.468;10.992;2022-12-07T00:51:20;3.40;99.90
14093;DHT22;7123;49.468;10.992;2022-12-07T00:53:48;3.40;99.90
14093;DHT22;7123;49.468;10.992;2022-12-07T00:56:20;3.40;99.90
14093;DHT22;7123;49.468;10.992;2022-12-07T00:58:53;3.40;99.90
14093;DHT22;7123;49.468;10.992;2022-12-07T01:01:20;3.40;99.90
14093;DHT22;7123;49.468;10.992;2022-12-07T01:03:47;3.40;99.90
14093;DHT22;7123;49.468;10.992;2022-12-07T01:06:15;3.40;99.90
14093;DHT22;7123;49.468;10.992;2022-12-07T01:08:43;3.40;99.90
14093;DHT22;7123;49.468;10.992;2022-12-07T01:11:13;3.40;99.90
14093;DHT22;7123;49.468;10.992;2022-12-07T01:13:40;3.40;99.90
14093;DHT22;7123;49.468;10.992;2022-12-07T01:16:09;3.40;99.90
14093;DHT22;7123;49.468;10.992;2022-12-07T01:18:36;3.40;99.90
14093;DHT22;7123;49.468;10.992;2022-12-07T01:21:12;3.40;99.90
14093;DHT22;7123;49.468;10.992;2022-12-07T01:23:39;3.50;99.90
14093;DHT22;7123;49.468;10.992;2022-12-07T01:26:09;3.50;99.90
14093;DHT22;7123;49.468;10.992;2022-12-07T01:28:37;3.50;99.90
14093;DHT22;7123;49.468;10.992;2022-12-07T01:31:10;3.50;99.90
14093;DHT22;7123;49.468;10.992;2022-12-07T01:33:39;3.50;99.90
14093;DHT22;7123;49.468;10.992;2022-12-07T01:36:07;3.50;99.90
14093;DHT22;7123;49.468;10.992;2022-12-07T01:38:34;3.40;99.90
14093;DHT22;7123;49.468;10.992;2022-12-07T01:41:02;3.50;99.90
14093;DHT22;7123;49.468;10.992;2022-12-07T01:43:30;3.40;99.90
14093;DHT22;7123;49.468;10.992;2022-12-07T01:45:57;3.40;99.90
14093;DHT22;7123;49.468;10.992;2022-12-07T01:48:40;3.40;99.90
14093;DHT22;7123;49.468;10.992;2022-12-07T01:51:12;3.40;99.90
14093;DHT22;7123;49.468;10.992;2022-12-07T01:53:43;3.40;99.90
14093;DHT22;7123;49.468;10.992;2022-12-07T01:56:17;3.40;99.90
14093;DHT22;7123;49.468;10.992;2022-12-07T01:58:48;3.40;99.90
14093;DHT22;7123;49.468;10.992;2022-12-07T02:01:15;3.40;99.90
14093;DHT22;7123;49.468;10.992;2022-12-07T02:03:43;3.40;99.90
14093;DHT22;7123;49.468;10.992;2022-12-07T02:06:13;3.40;99.90
14093;DHT22;7123;49.468;10.992;2022-12-07T02:08:43;3.30;99.90
14093;DHT22;7123;49.468;10.992;2022-12-07T02:11:10;3.30;99.90
14093;DHT22;7123;49.468;10.992;2022-12-07T02:13:39;3.30;99.90
14093;DHT22;7123;49.468;10.992;2022-12-07T02:19:29;3.30;99.90
14093;DHT22;7123;49.468;10.992;2022-12-07T02:28:31;3.30;99.90
14093;DHT22;7123;49.468;10.992;2022-12-07T02:31:06;3.30;99.90
14093;DHT22;7123;49.468;10.992;2022-12-07T02:33:40;3.30;99.90
14093;DHT22;7123;49.468;10.992;2022-12-07T02:36:16;3.30;99.90
14093;DHT22;7123;49.468;10.992;2022-12-07T02:38:58;3.30;99.90
14093;DHT22;7123;49.468;10.992;2022-12-07T02:41:51;3.30;99.90
14093;DHT22;7123;49.468;10.992;2022-12-07T02:44:20;3.20;99.90
14093;DHT22;7123;49.468;10.992;2022-12-07T02:46:53;3.20;99.90
14093;DHT22;7123;49.468;10.992;2022-12-07T02:49:22;3.20;99.90
14093;DHT22;7123;49.468;10.992;2022-12-07T02:51:52;3.10;99.90
14093;DHT22;7123;49.468;10.992;2022-12-07T02:54:21;3.10;99.90
14093;DHT22;7123;49.468;10.992;2022-12-07T02:57:03;3.10;99.90
14093;DHT22;7123;49.468;10.992;2022-12-07T03:02:41;3.00;99.90
14093;DHT22;7123;49.468;10.992;2022-12-07T03:10:54;3.00;99.90
14093;DHT22;7123;49.468;10.992;2022-12-07T03:16:37;3.10;99.90
14093;DHT22;7123;49.468;10.992;2022-12-07T03:19:15;3.10;99.90
14093;DHT22;7123;49.468;10.992;2022-12-07T03:21:51;3.10;99.90
14093;DHT22;7123;49.468;10.992;2022-12-07T03:24:22;3.00;99.90
14093;DHT22;7123;49.468;10.992;2022-12-07T03:30:00;2.90;99.90
14093;DHT22;7123;49.468;10.992;2022-12-07T03:32:38;3.00;99.90
14093;DHT22;7123;49.468;10.992;2022-12-07T03:35:09;3.00;99.90
14093;DHT22;7123;49.468;10.992;2022-12-07T03:40:30;3.10;99.90
14093;DHT22;7123;49.468;10.992;2022-12-07T03:43:01;3.10;99.90
14093;DHT22;7123;49.468;10.992;2022-12-07T03:45:43;3.10;99.90
14093;DHT22;7123;49.468;10.992;2022-12-07T03:48:25;3.00;99.90
14093;DHT22;7123;49.468;10.992;2022-12-07T03:51:13;3.00;99.90
14093;DHT22;7123;49.468;10.992;2022-12-07T03:53:54;3.10;99.90
14093;DHT22;7123;49.468;10.992;2022-12-07T03:56:26;3.10;99.90
14093;DHT22;7123;49.468;10.992;2022-12-07T03:58:54;3.10;99.90
14093;DHT22;7123;49.468;10.992;2022-12-07T04:01:23;3.20;99.90
14093;DHT22;7123;49.468;10.992;2022-12-07T04:03:49;3.20;99.90
14093;DHT22;7123;49.468;10.992;2022-12-07T04:06:16;3.20;99.90
14093;DHT22;7123;49.468;10.992;2022-12-07T04:08:43;3.20;99.90
14093;DHT22;7123;49.468;10.992;2022-12-07T04:11:10;3.20;99.90
14093;DHT22;7123;49.468;10.992;2022-12-07T04:13:36;3.20;99.90
14093;DHT22;7123;49.468;10.992;2022-12-07T04:16:23;3.20;99.90
14093;DHT22;7123;49.468;10.992;2022-12-07T04:18:50;3.10;99.90
14093;DHT22;7123;49.468;10.992;2022-12-07T04:21:17;3.10;99.90
14093;DHT22;7123;49.468;10.992;2022-12-07T04:23:43;3.00;99.90
14093;DHT22;7123;49.468;10.992;2022-12-07T04:26:10;3.00;99.90
14093;DHT22;7123;49.468;10.992;2022-12-07T04:28:37;3.00;99.90
14093;DHT22;7123;49.468;10.992;2022-12-07T04:31:04;2.90;99.90
14093;DHT22;7123;49.468;10.992;2022-12-07T04:33:30;2.90;99.90
14093;DHT22;7123;49.468;10.992;2022-12-07T04:35:57;2.90;99.90
14093;DHT22;7123;49.468;10.992;2022-12-07T04:38:24;2.90;99.90
14093;DHT22;7123;49.468;10.992;2022-12-07T04:40:50;2.90;99.90
14093;DHT22;7123;49.468;10.992;2022-12-07T04:43:17;2.80;99.90
14093;DHT22;7123;49.468;10.992;2022-12-07T04:45:50;2.80;99.90
14093;DHT22;7123;49.468;10.992;2022-12-07T04:48:17;2.70;99.90
14093;DHT22;7123;49.468;10.992;2022-12-07T04:50:44;2.80;99.90
14093;DHT22;7123;49.468;10.992;2022-12-07T04:53:12;2.80;99.90
14093;DHT22;7123;49.468;10.992;2022-12-07T04:55:39;2.80;99.90
14093;DHT22;7123;49.468;10.992;2022-12-07T04:58:06;2.70;99.90
14093;DHT22;7123;49.468;10.992;2022-12-07T05:00:33;2.70;99.90
14093;DHT22;7123;49.468;10.992;2022-12-07T05:03:00;2.70;99.90
14093;DHT22;7123;49.468;10.992;2022-12-07T05:05:26;2.70;99.90
14093;DHT22;7123;49.468;10.992;2022-12-07T05:07:53;2.70;99.90
14093;DHT22;7123;49.468;10.992;2022-12-07T05:10:20;2.60;99.90
14093;DHT22;7123;49.468;10.992;2022-12-07T05:12:47;2.60;99.90
14093;DHT22;7123;49.468;10.992;2022-12-07T05:15:14;2.50;99.90
14093;DHT22;7123;49.468;10.992;2022-12-07T05:17:41;2.50;99.90
14093;DHT22;7123;49.468;10.992;2022-12-07T05:20:09;2.60;99.90
14093;DHT22;7123;49.468;10.992;2022-12-07T05:22:36;2.60;99.90
14093;DHT22;7123;49.468;10.992;2022-12-07T05:25:02;2.60;99.90
14093;DHT22;7123;49.468;10.992;2022-12-07T05:27:29;2.60;99.90
14093;DHT22;7123;49.468;10.992;2022-12-07T05:29:56;2.70;99.90
14093;DHT22;7123;49.468;10.992;2022-12-07T05:32:22;2.70;99.90
14093;DHT22;7123;49.468;10.992;2022-12-07T05:34:49;2.70;99.90
14093;DHT22;7123;49.468;10.992;2022-12-07T05:37:16;2.70;99.90
14093;DHT22;7123;49.468;10.992;2022-12-07T05:39:42;2.60;99.90
14093;DHT22;7123;49.468;10.992;2022-12-07T05:42:10;2.70;99.90
14093;DHT22;7123;49.468;10.992;2022-12-07T05:44:45;2.60;99.90
14093;DHT22;7123;49.468;10.992;2022-12-07T05:47:13;2.80;99.90
14093;DHT22;7123;49.468;10.992;2022-12-07T05:49:40;2.70;99.90
14093;DHT22;7123;49.468;10.992;2022-12-07T05:52:07;2.80;99.90
14093;DHT22;7123;49.468;10.992;2022-12-07T05:54:34;2.80;99.90
14093;DHT22;7123;49.468;10.992;2022-12-07T05:57:00;2.80;99.90
14093;DHT22;7123;49.468;10.992;2022-12-07T05:59:27;2.80;99.90
14093;DHT22;7123;49.468;10.992;2022-12-07T06:02:00;2.90;99.90
14093;DHT22;7123;49.468;10.992;2022-12-07T06:04:30;2.90;99.90
14093;DHT22;7123;49.468;10.992;2022-12-07T06:06:57;2.90;99.90
14093;DHT22;7123;49.468;10.992;2022-12-07T06:09:25;3.00;99.90
14093;DHT22;7123;49.468;10.992;2022-12-07T06:11:52;3.00;99.90
14093;DHT22;7123;49.468;10.992;2022-12-07T06:14:38;3.00;99.90
14093;DHT22;7123;49.468;10.992;2022-12-07T06:17:05;3.00;99.90
14093;DHT22;7123;49.468;10.992;2022-12-07T06:19:32;2.90;99.90
14093;DHT22;7123;49.468;10.992;2022-12-07T06:21:59;2.90;99.90
14093;DHT22;7123;49.468;10.992;2022-12-07T06:24:26;2.90;99.90
14093;DHT22;7123;49.468;10.992;2022-12-07T06:26:53;2.80;99.90
14093;DHT22;7123;49.468;10.992;2022-12-07T06:29:19;2.80;99.90
14093;DHT22;7123;49.468;10.992;2022-12-07T06:31:46;2.80;99.90
14093;DHT22;7123;49.468;10.992;2022-12-07T06:34:15;2.90;99.90
14093;DHT22;7123;49.468;10.992;2022-12-07T06:36:42;2.90;99.90
14093;DHT22;7123;49.468;10.992;2022-12-07T06:39:09;2.90;99.90
14093;DHT22;7123;49.468;10.992;2022-12-07T06:41:37;3.00;99.90
14093;DHT22;7123;49.468;10.992;2022-12-07T06:44:05;3.00;99.90
14093;DHT22;7123;49.468;10.992;2022-12-07T06:46:32;3.00;99.90
14093;DHT22;7123;49.468;10.992;2022-12-07T06:48:59;3.00;99.90
14093;DHT22;7123;49.468;10.992;2022-12-07T06:51:26;3.10;99.90
14093;DHT22;7123;49.468;10.992;2022-12-07T06:53:53;3.10;99.90
14093;DHT22;7123;49.468;10.992;2022-12-07T06:56:20;3.10;99.90
14093;DHT22;7123;49.468;10.992;2022-12-07T06:58:46;3.10;99.90
14093;DHT22;7123;49.468;10.992;2022-12-07T07:01:16;3.10;99.90
14093;DHT22;7123;49.468;10.992;2022-12-07T07:03:44;3.00;99.90
14093;DHT22;7123;49.468;10.992;2022-12-07T07:06:12;3.00;99.90
14093;DHT22;7123;49.468;10.992;2022-12-07T07:08:39;2.90;99.90
14093;DHT22;7123;49.468;10.992;2022-12-07T07:11:08;2.90;99.90
14093;DHT22;7123;49.468;10.992;2022-12-07T07:13:34;2.90;99.90
14093;DHT22;7123;49.468;10.992;2022-12-07T07:16:02;2.80;99.90
14093;DHT22;7123;49.468;10.992;2022-12-07T07:18:29;2.90;99.90
14093;DHT22;7123;49.468;10.992;2022-12-07T07:20:56;2.90;99.90
14093;DHT22;7123;49.468;10.992;2022-12-07T07:23:23;2.90;99.90
14093;DHT22;7123;49.468;10.992;2022-12-07T07:25:50;2.90;99.90
14093;DHT22;7123;49.468;10.992;2022-12-07T07:28:17;3.00;99.90
14093;DHT22;7123;49.468;10.992;2022-12-07T07:30:45;2.90;99.90
14093;DHT22;7123;49.468;10.992;2022-12-07T07:33:12;3.00;99.90
14093;DHT22;7123;49.468;10.992;2022-12-07T07:35:39;3.00;99.90
14093;DHT22;7123;49.468;10.992;2022-12-07T07:38:06;3.00;99.90
14093;DHT22;7123;49.468;10.992;2022-12-07T07:40:33;3.00;99.90
14093;DHT22;7123;49.468;10.992;2022-12-07T07:43:00;3.00;99.90
14093;DHT22;7123;49.468;10.992;2022-12-07T07:45:27;3.00;99.90
14093;DHT22;7123;49.468;10.992;2022-12-07T07:47:54;3.00;99.90
14093;DHT22;7123;49.468;10.992;2022-12-07T07:50:21;3.00;99.90
14093;DHT22;7123;49.468;10.992;2022-12-07T07:52:48;3.10;99.90
14093;DHT22;7123;49.468;10.992;2022-12-07T07:55:15;3.10;99.90
14093;DHT22;7123;49.468;10.992;2022-12-07T07:57:41;3.10;99.90
14093;DHT22;7123;49.468;10.992;2022-12-07T08:00:11;3.10;99.90
14093;DHT22;7123;49.468;10.992;2022-12-07T08:02:38;3.10;99.90
14093;DHT22;7123;49.468;10.992;2022-12-07T08:05:06;3.10;99.90
14093;DHT22;7123;49.468;10.992;2022-12-07T08:07:33;3.10;99.90
14093;DHT22;7123;49.468;10.992;2022-12-07T08:10:00;3.10;99.90
14093;DHT22;7123;49.468;10.992;2022-12-07T08:12:27;3.10;99.90
14093;DHT22;7123;49.468;10.992;2022-12-07T08:14:54;3.20;99.90
14093;DHT22;7123;49.468;10.992;2022-12-07T08:17:21;3.10;99.90
14093;DHT22;7123;49.468;10.992;2022-12-07T08:19:47;3.20;99.90
14093;DHT22;7123;49.468;10.992;2022-12-07T08:22:14;3.20;99.90
14093;DHT22;7123;49.468;10.992;2022-12-07T08:24:41;3.20;99.90
14093;DHT22;7123;49.468;10.992;2022-12-07T08:27:07;3.30;99.90
14093;DHT22;7123;49.468;10.992;2022-12-07T08:29:34;3.30;99.90
14093;DHT22;7123;49.468;10.992;2022-12-07T08:32:01;3.30;99.90
14093;DHT22;7123;49.468;10.992;2022-12-07T08:34:34;3.40;99.90
14093;DHT22;7123;49.468;10.992;2022-12-07T08:37:02;3.30;99.90
14093;DHT22;7123;49.468;10.992;2022-12-07T08:39:29;3.30;99.90
14093;DHT22;7123;49.468;10.992;2022-12-07T08:41:58;3.40;99.90
14093;DHT22;7123;49.468;10.992;2022-12-07T08:44:24;3.40;99.90
14093;DHT22;7123;49.468;10.992;2022-12-07T08:47:00;3.30;99.90
14093;DHT22;7123;49.468;10.992;2022-12-07T08:49:39;3.40;99.90
14093;DHT22;7123;49.468;10.992;2022-12-07T08:52:07;3.40;99.90
14093;DHT22;7123;49.468;10.992;2022-12-07T08:54:36;3.40;99.90
14093;DHT22;7123;49.468;10.992;2022-12-07T08:57:05;3.40;99.90
14093;DHT22;7123;49.468;10.992;2022-12-07T08:59:34;3.40;99.90
14093;DHT22;7123;49.468;10.992;2022-12-07T09:02:01;3.40;99.90
14093;DHT22;7123;49.468;10.992;2022-12-07T09:04:28;3.50;99.90
14093;DHT22;7123;49.468;10.992;2022-12-07T09:06:55;3.50;99.90
14093;DHT22;7123;49.468;10.992;2022-12-07T09:09:22;3.50;99.90
14093;DHT22;7123;49.468;10.992;2022-12-07T09:11:48;3.50;99.90
14093;DHT22;7123;49.468;10.992;2022-12-07T09:14:15;3.30;99.90
14093;DHT22;7123;49.468;10.992;2022-12-07T09:16:42;3.30;99.90
14093;DHT22;7123;49.468;10.992;2022-12-07T09:19:08;3.30;99.90
14093;DHT22;7123;49.468;10.992;2022-12-07T09:21:35;3.30;99.90
14093;DHT22;7123;49.468;10.992;2022-12-07T09:24:02;3.30;99.90
14093;DHT22;7123;49.468;10.992;2022-12-07T09:26:28;3.30;99.90
14093;DHT22;7123;49.468;10.992;2022-12-07T09:28:55;3.30;99.90
14093;DHT22;7123;49.468;10.992;2022-12-07T09:31:22;3.30;99.90
14093;DHT22;7123;49.468;10.992;2022-12-07T09:33:59;3.20;99.90
14093;DHT22;7123;49.468;10.992;2022-12-07T09:36:27;3.20;99.90
14093;DHT22;7123;49.468;10.992;2022-12-07T09:38:55;3.20;99.90
14093;DHT22;7123;49.468;10.992;2022-12-07T09:41:24;3.20;99.90
14093;DHT22;7123;49.468;10.992;2022-12-07T09:43:52;3.20;99.90
14093;DHT22;7123;49.468;10.992;2022-12-07T09:46:20;3.20;99.90
14093;DHT22;7123;49.468;10.992;2022-12-07T09:48:48;3.20;99.90
14093;DHT22;7123;49.468;10.992;2022-12-07T09:51:21;3.20;99.90
14093;DHT22;7123;49.468;10.992;2022-12-07T09:53:53;3.30;99.90
14093;DHT22;7123;49.468;10.992;2022-12-07T09:56:21;3.30;99.90
14093;DHT22;7123;49.468;10.992;2022-12-07T09:58:49;3.20;99.90
14093;DHT22;7123;49.468;10.992;2022-12-07T10:01:19;3.20;99.90
14093;DHT22;7123;49.468;10.992;2022-12-07T10:03:55;3.30;99.90
14093;DHT22;7123;49.468;10.992;2022-12-07T10:06:24;3.30;99.90
14093;DHT22;7123;49.468;10.992;2022-12-07T10:08:51;3.40;99.90
14093;DHT22;7123;49.468;10.992;2022-12-07T10:11:18;3.40;99.90
14093;DHT22;7123;49.468;10.992;2022-12-07T10:13:47;3.50;99.90
14093;DHT22;7123;49.468;10.992;2022-12-07T10:18:52;3.50;99.90
14093;DHT22;7123;49.468;10.992;2022-12-07T10:21:26;3.50;99.90
14093;DHT22;7123;49.468;10.992;2022-12-07T10:27:12;3.60;99.90
14093;DHT22;7123;49.468;10.992;2022-12-07T10:29:29;3.60;99.90
14093;DHT22;7123;49.468;10.992;2022-12-07T10:34:31;3.60;99.90
14093;DHT22;7123;49.468;10.992;2022-12-07T10:39:56;3.70;99.90
14093;DHT22;7123;49.468;10.992;2022-12-07T10:42:26;3.70;99.90
14093;DHT22;7123;49.468;10.992;2022-12-07T10:48:02;3.80;99.90
14093;DHT22;7123;49.468;10.992;2022-12-07T10:53:27;3.80;99.90
14093;DHT22;7123;49.468;10.992;2022-12-07T11:01:45;3.80;99.90
14093;DHT22;7123;49.468;10.992;2022-12-07T11:04:29;3.80;99.90
14093;DHT22;7123;49.468;10.992;2022-12-07T11:07:06;3.80;99.90
14093;DHT22;7123;49.468;10.992;2022-12-07T11:09:53;3.80;99.90
14093;DHT22;7123;49.468;10.992;2022-12-07T11:15:53;3.80;99.90
14093;DHT22;7123;49.468;10.992;2022-12-07T11:18:47;3.80;99.90
14093;DHT22;7123;49.468;10.992;2022-12-07T11:21:26;3.80;99.90
14093;DHT22;7123;49.468;10.992;2022-12-07T11:35:30;3.80;99.90
14093;DHT22;7123;49.468;10.992;2022-12-07T11:38:23;3.80;99.90
14093;DHT22;7123;49.468;10.992;2022-12-07T11:41:00;3.90;99.90
14093;DHT22;7123;49.468;10.992;2022-12-07T11:43:56;3.90;99.90
14093;DHT22;7123;49.468;10.992;2022-12-07T11:46:28;3.90;99.90
14093;DHT22;7123;49.468;10.992;2022-12-07T11:49:37;4.00;99.90
14093;DHT22;7123;49.468;10.992;2022-12-07T11:52:02;4.00;99.90
14093;DHT22;7123;49.468;10.992;2022-12-07T11:54:35;4.00;99.90
14093;DHT22;7123;49.468;10.992;2022-12-07T11:57:25;4.00;99.90
14093;DHT22;7123;49.468;10.992;2022-12-07T12:00:03;4.00;99.90
14093;DHT22;7123;49.468;10.992;2022-12-07T12:02:50;4.00;99.90
14093;DHT22;7123;49.468;10.992;2022-12-07T12:05:21;4.10;99.90
14093;DHT22;7123;49.468;10.992;2022-12-07T12:07:57;4.10;99.90
14093;DHT22;7123;49.468;10.992;2022-12-07T12:11:12;4.10;99.90
14093;DHT22;7123;49.468;10.992;2022-12-07T12:13:52;4.10;99.90
14093;DHT22;7123;49.468;10.992;2022-12-07T12:19:28;4.10;99.90
14093;DHT22;7123;49.468;10.992;2022-12-07T12:22:06;4.10;99.90
14093;DHT22;7123;49.468;10.992;2022-12-07T12:24:37;4.10;99.90
14093;DHT22;7123;49.468;10.992;2022-12-07T12:27:08;4.10;99.90
14093;DHT22;7123;49.468;10.992;2022-12-07T12:29:38;4.10;99.90
14093;DHT22;7123;49.468;10.992;2022-12-07T12:32:19;4.10;99.90
14093;DHT22;7123;49.468;10.992;2022-12-07T12:42:49;4.10;99.90
14093;DHT22;7123;49.468;10.992;2022-12-07T12:45:37;4.20;99.90
14093;DHT22;7123;49.468;10.992;2022-12-07T12:48:28;4.10;99.90
14093;DHT22;7123;49.468;10.992;2022-12-07T12:54:14;4.10;99.90
14093;DHT22;7123;49.468;10.992;2022-12-07T12:56:48;4.10;99.90
14093;DHT22;7123;49.468;10.992;2022-12-07T12:59:31;4.10;99.90
14093;DHT22;7123;49.468;10.992;2022-12-07T13:02:35;4.10;99.90
14093;DHT22;7123;49.468;10.992;2022-12-07T13:15:41;4.20;99.90
14093;DHT22;7123;49.468;10.992;2022-12-07T13:21:01;4.20;99.90
14093;DHT22;7123;49.468;10.992;2022-12-07T13:23:33;4.20;99.90
14093;DHT22;7123;49.468;10.992;2022-12-07T13:34:38;4.20;99.90
14093;DHT22;7123;49.468;10.992;2022-12-07T13:37:18;4.20;99.90
14093;DHT22;7123;49.468;10.992;2022-12-07T13:39:58;4.20;99.90
14093;DHT22;7123;49.468;10.992;2022-12-07T13:44:54;4.20;99.90
14093;DHT22;7123;49.468;10.992;2022-12-07T13:49:57;4.10;99.90
14093;DHT22;7123;49.468;10.992;2022-12-07T13:52:32;4.20;99.90
14093;DHT22;7123;49.468;10.992;2022-12-07T13:55:15;4.20;99.90
14093;DHT22;7123;49.468;10.992;2022-12-07T13:57:45;4.20;99.90
14093;DHT22;7123;49.468;10.992;2022-12-07T14:00:19;4.20;99.90
14093;DHT22;7123;49.468;10.992;2022-12-07T14:03:04;4.20;99.90
14093;DHT22;7123;49.468;10.992;2022-12-07T14:05:46;4.20;99.90
14093;DHT22;7123;49.468;10.992;2022-12-07T14:08:30;4.10;99.90
14093;DHT22;7123;49.468;10.992;2022-12-07T14:10:57;4.10;99.90
14093;DHT22;7123;49.468;10.992;2022-12-07T14:16:01;4.10;99.90
14093;DHT22;7123;49.468;10.992;2022-12-07T14:18:39;4.10;99.90
14093;DHT22;7123;49.468;10.992;2022-12-07T14:21:22;4.10;99.90
14093;DHT22;7123;49.468;10.992;2022-12-07T14:24:22;4.10;99.90
14093;DHT22;7123;49.468;10.992;2022-12-07T14:26:50;4.20;99.90
14093;DHT22;7123;49.468;10.992;2022-12-07T14:31:54;4.20;99.90
14093;DHT22;7123;49.468;10.992;2022-12-07T14:34:21;4.20;99.90
14093;DHT22;7123;49.468;10.992;2022-12-07T14:36:48;4.30;99.90
14093;DHT22;7123;49.468;10.992;2022-12-07T14:39:18;4.30;99.90
14093;DHT22;7123;49.468;10.992;2022-12-07T14:41:45;4.30;99.90
14093;DHT22;7123;49.468;10.992;2022-12-07T14:44:27;4.30;99.90
14093;DHT22;7123;49.468;10.992;2022-12-07T14:47:01;4.10;99.90
14093;DHT22;7123;49.468;10.992;2022-12-07T14:49:48;4.00;99.90
14093;DHT22;7123;49.468;10.992;2022-12-07T14:52:21;4.00;99.90
14093;DHT22;7123;49.468;10.992;2022-12-07T14:55:34;4.00;99.90
14093;DHT22;7123;49.468;10.992;2022-12-07T14:58:01;3.90;99.90
14093;DHT22;7123;49.468;10.992;2022-12-07T15:00:28;3.90;99.90
14093;DHT22;7123;49.468;10.992;2022-12-07T15:02:55;3.90;99.90
14093;DHT22;7123;49.468;10.992;2022-12-07T15:05:23;3.90;99.90
14093;DHT22;7123;49.468;10.992;2022-12-07T15:07:50;3.80;99.90
14093;DHT22;7123;49.468;10.992;2022-12-07T15:10:19;3.80;99.90
14093;DHT22;7123;49.468;10.992;2022-12-07T15:12:50;3.80;99.90
14093;DHT22;7123;49.468;10.992;2022-12-07T15:15:17;3.80;99.90
14093;DHT22;7123;49.468;10.992;2022-12-07T15:17:44;3.80;99.90
14093;DHT22;7123;49.468;10.992;2022-12-07T15:20:13;3.90;99.90
14093;DHT22;7123;49.468;10.992;2022-12-07T15:22:40;3.90;99.90
14093;DHT22;7123;49.468;10.992;2022-12-07T15:25:09;3.90;99.90
14093;DHT22;7123;49.468;10.992;2022-12-07T15:27:38;3.90;99.90
14093;DHT22;7123;49.468;10.992;2022-12-07T15:30:05;3.90;99.90
14093;DHT22;7123;49.468;10.992;2022-12-07T15:32:32;3.90;99.90
14093;DHT22;7123;49.468;10.992;2022-12-07T15:34:59;3.90;99.90
14093;DHT22;7123;49.468;10.992;2022-12-07T15:37:26;3.90;99.90
14093;DHT22;7123;49.468;10.992;2022-12-07T15:39:53;3.90;99.90
14093;DHT22;7123;49.468;10.992;2022-12-07T15:42:20;3.90;99.90
14093;DHT22;7123;49.468;10.992;2022-12-07T15:44:47;3.90;99.90
14093;DHT22;7123;49.468;10.992;2022-12-07T15:47:38;3.90;99.90
14093;DHT22;7123;49.468;10.992;2022-12-07T15:50:25;3.90;99.90
14093;DHT22;7123;49.468;10.992;2022-12-07T15:52:52;3.90;99.90
14093;DHT22;7123;49.468;10.992;2022-12-07T15:55:19;3.90;99.90
14093;DHT22;7123;49.468;10.992;2022-12-07T15:57:45;3.90;99.90
14093;DHT22;7123;49.468;10.992;2022-12-07T16:00:13;3.90;99.90
14093;DHT22;7123;49.468;10.992;2022-12-07T16:02:40;3.90;99.90
14093;DHT22;7123;49.468;10.992;2022-12-07T16:05:07;3.90;99.90
14093;DHT22;7123;49.468;10.992;2022-12-07T16:07:33;3.90;99.90
14093;DHT22;7123;49.468;10.992;2022-12-07T16:10:00;3.90;99.90
14093;DHT22;7123;49.468;10.992;2022-12-07T16:12:27;3.80;99.90
14093;DHT22;7123;49.468;10.992;2022-12-07T16:14:53;3.80;99.90
14093;DHT22;7123;49.468;10.992;2022-12-07T16:17:20;3.80;99.90
14093;DHT22;7123;49.468;10.992;2022-12-07T16:19:47;3.80;99.90
14093;DHT22;7123;49.468;10.992;2022-12-07T16:22:13;3.80;99.90
14093;DHT22;7123;49.468;10.992;2022-12-07T16:24:40;3.80;99.90
14093;DHT22;7123;49.468;10.992;2022-12-07T16:27:07;3.70;99.90
14093;DHT22;7123;49.468;10.992;2022-12-07T16:29:34;3.70;99.90
14093;DHT22;7123;49.468;10.992;2022-12-07T16:32:01;3.60;99.90
14093;DHT22;7123;49.468;10.992;2022-12-07T16:34:28;3.60;99.90
14093;DHT22;7123;49.468;10.992;2022-12-07T16:36:54;3.60;99.90
14093;DHT22;7123;49.468;10.992;2022-12-07T16:39:29;3.60;99.90
14093;DHT22;7123;49.468;10.992;2022-12-07T16:41:56;3.60;99.90
14093;DHT22;7123;49.468;10.992;2022-12-07T16:44:22;3.60;99.90
14093;DHT22;7123;49.468;10.992;2022-12-07T16:46:49;3.60;99.90
14093;DHT22;7123;49.468;10.992;2022-12-07T16:49:16;3.60;99.90
14093;DHT22;7123;49.468;10.992;2022-12-07T16:51:45;3.70;99.90
14093;DHT22;7123;49.468;10.992;2022-12-07T16:54:12;3.60;99.90
14093;DHT22;7123;49.468;10.992;2022-12-07T16:56:39;3.60;99.90
14093;DHT22;7123;49.468;10.992;2022-12-07T16:59:06;3.60;99.90
14093;DHT22;7123;49.468;10.992;2022-12-07T17:01:33;3.60;99.90
14093;DHT22;7123;49.468;10.992;2022-12-07T17:04:01;3.60;99.90
14093;DHT22;7123;49.468;10.992;2022-12-07T17:06:28;3.60;99.90
14093;DHT22;7123;49.468;10.992;2022-12-07T17:08:56;3.60;99.90
14093;DHT22;7123;49.468;10.992;2022-12-07T17:11:26;3.60;99.90
14093;DHT22;7123;49.468;10.992;2022-12-07T17:13:53;3.60;99.90
14093;DHT22;7123;49.468;10.992;2022-12-07T17:16:38;3.60;99.90
14093;DHT22;7123;49.468;10.992;2022-12-07T17:19:06;3.60;99.90
14093;DHT22;7123;49.468;10.992;2022-12-07T17:21:33;3.60;99.90
14093;DHT22;7123;49.468;10.992;2022-12-07T17:24:01;3.60;99.90
14093;DHT22;7123;49.468;10.992;2022-12-07T17:26:29;3.60;99.90
14093;DHT22;7123;49.468;10.992;2022-12-07T17:29:02;3.50;99.90
14093;DHT22;7123;49.468;10.992;2022-12-07T17:31:29;3.50;99.90
14093;DHT22;7123;49.468;10.992;2022-12-07T17:33:56;3.50;99.90
14093;DHT22;7123;49.468;10.992;2022-12-07T17:36:25;3.60;99.90
14093;DHT22;7123;49.468;10.992;2022-12-07T17:38:53;3.60;99.90
14093;DHT22;7123;49.468;10.992;2022-12-07T17:41:22;3.60;99.90
14093;DHT22;7123;49.468;10.992;2022-12-07T17:44:10;3.50;99.90
14093;DHT22;7123;49.468;10.992;2022-12-07T17:46:38;3.40;99.90
14093;DHT22;7123;49.468;10.992;2022-12-07T17:49:06;3.40;99.90
14093;DHT22;7123;49.468;10.992;2022-12-07T17:51:33;3.40;99.90
14093;DHT22;7123;49.468;10.992;2022-12-07T17:54:18;3.40;99.90
14093;DHT22;7123;49.468;10.992;2022-12-07T17:56:45;3.30;99.90
14093;DHT22;7123;49.468;10.992;2022-12-07T17:59:12;3.40;99.90